sensor_id;sensor_type;location;lat;lon;timestamp;pressure;altitude;pressure_sealevel;temperature;humidity
31595;BME280;18200;48.726;8.892;2022-07-22T00:01:03;97170.63;;;29.36;40.23
31595;BME280;18200;48.726;8.892;2022-07-22T00:05:03;97170.56;;;29.69;39.89
31595;BME280;18200;48.726;8.892;2022-07-22T00:09:04;97170.69;;;29.51;40.42
31595;BME280;18200;48.726;8.892;2022-07-22T00:13:04;97171.41;;;29.37;40.99
31595;BME280;18200;48.726;8.892;2022-07-22T00:17:05;97169.63;;;29.15;40.25
31595;BME280;18200;48.726;8.892;2022-07-22T00:21:05;97164.00;;;29.43;39.93
31595;BME280;18200;48.726;8.892;2022-07-22T00:25:06;97166.63;;;28.95;41.26
31595;BME280;18200;48.726;8.892;2022-07-22T00:29:06;97168.13;;;29.05;40.99
31595;BME280;18200;48.726;8.892;2022-07-22T00:33:06;97163.19;;;29.09;40.49
31595;BME280;18200;48.726;8.892;2022-07-22T00:37:07;97157.53;;;28.62;42.04
31595;BME280;18200;48.726;8.892;2022-07-22T00:41:07;97166.13;;;28.37;43.09
31595;BME280;18200;48.726;8.892;2022-07-22T00:45:08;97149.03;;;29.17;40.92
31595;BME280;18200;48.726;8.892;2022-07-22T00:49:09;97156.84;;;28.76;41.46
31595;BME280;18200;48.726;8.892;2022-07-22T00:53:09;97155.97;;;28.61;41.75
31595;BME280;18200;48.726;8.892;2022-07-22T00:57:09;97146.94;;;29.02;41.40
31595;BME280;18200;48.726;8.892;2022-07-22T01:01:10;97142.63;;;28.60;42.63
31595;BME280;18200;48.726;8.892;2022-07-22T01:05:10;97139.19;;;28.74;41.32
31595;BME280;18200;48.726;8.892;2022-07-22T01:09:12;97146.16;;;28.33;42.92
31595;BME280;18200;48.726;8.892;2022-07-22T01:13:13;97137.44;;;28.34;42.72
31595;BME280;18200;48.726;8.892;2022-07-22T01:17:13;97147.69;;;27.61;43.76
31595;BME280;18200;48.726;8.892;2022-07-22T01:21:15;97143.13;;;28.13;43.43
31595;BME280;18200;48.726;8.892;2022-07-22T01:25:16;97136.97;;;28.36;42.06
31595;BME280;18200;48.726;8.892;2022-07-22T01:29:16;97138.78;;;28.39;41.15
31595;BME280;18200;48.726;8.892;2022-07-22T01:33:18;97148.31;;;27.93;42.72
31595;BME280;18200;48.726;8.892;2022-07-22T01:37:19;97127.41;;;28.46;41.80
31595;BME280;18200;48.726;8.892;2022-07-22T01:41:19;97143.75;;;28.17;41.79
31595;BME280;18200;48.726;8.892;2022-07-22T01:45:20;97134.47;;;27.38;43.28
31595;BME280;18200;48.726;8.892;2022-07-22T01:49:21;97125.91;;;27.73;43.79
31595;BME280;18200;48.726;8.892;2022-07-22T01:53:21;97132.25;;;27.33;43.74
31595;BME280;18200;48.726;8.892;2022-07-22T01:57:22;97138.78;;;27.66;43.95
31595;BME280;18200;48.726;8.892;2022-07-22T02:01:24;97136.66;;;28.07;43.21
31595;BME280;18200;48.726;8.892;2022-07-22T02:05:25;97135.34;;;27.35;43.64
31595;BME280;18200;48.726;8.892;2022-07-22T02:09:26;97140.78;;;27.75;43.52
31595;BME280;18200;48.726;8.892;2022-07-22T02:13:28;97140.03;;;28.29;42.05
31595;BME280;18200;48.726;8.892;2022-07-22T02:17:28;97128.97;;;28.29;41.47
31595;BME280;18200;48.726;8.892;2022-07-22T02:21:29;97129.47;;;28.00;42.32
31595;BME280;18200;48.726;8.892;2022-07-22T02:25:33;97130.22;;;28.19;42.54
31595;BME280;18200;48.726;8.892;2022-07-22T02:29:34;97128.06;;;28.23;41.44
31595;BME280;18200;48.726;8.892;2022-07-22T02:33:34;97128.66;;;28.36;41.72
31595;BME280;18200;48.726;8.892;2022-07-22T02:37:36;97115.16;;;28.29;41.65
31595;BME280;18200;48.726;8.892;2022-07-22T02:41:38;97120.38;;;28.18;42.07
31595;BME280;18200;48.726;8.892;2022-07-22T02:45:39;97117.75;;;27.60;42.53
31595;BME280;18200;48.726;8.892;2022-07-22T02:49:40;97114.88;;;27.73;43.73
31595;BME280;18200;48.726;8.892;2022-07-22T02:53:41;97118.53;;;27.88;42.76
31595;BME280;18200;48.726;8.892;2022-07-22T02:57:42;97117.91;;;27.56;42.30
31595;BME280;18200;48.726;8.892;2022-07-22T03:01:43;97121.31;;;27.70;42.59
31595;BME280;18200;48.726;8.892;2022-07-22T03:05:44;97121.50;;;28.02;41.73
31595;BME280;18200;48.726;8.892;2022-07-22T03:09:53;97121.44;;;27.57;42.12
31595;BME280;18200;48.726;8.892;2022-07-22T03:13:53;97124.13;;;26.81;43.97
31595;BME280;18200;48.726;8.892;2022-07-22T03:17:54;97121.13;;;26.97;43.59
31595;BME280;18200;48.726;8.892;2022-07-22T03:21:55;97121.50;;;27.26;43.15
31595;BME280;18200;48.726;8.892;2022-07-22T03:25:56;97129.50;;;27.33;42.74
31595;BME280;18200;48.726;8.892;2022-07-22T03:29:57;97130.72;;;27.32;42.90
31595;BME280;18200;48.726;8.892;2022-07-22T03:33:58;97133.69;;;27.56;42.81
31595;BME280;18200;48.726;8.892;2022-07-22T03:38:04;97126.78;;;27.51;42.09
31595;BME280;18200;48.726;8.892;2022-07-22T03:42:05;97131.47;;;27.33;42.72
31595;BME280;18200;48.726;8.892;2022-07-22T03:46:13;97125.16;;;26.74;43.88
31595;BME280;18200;48.726;8.892;2022-07-22T03:50:14;97118.09;;;27.13;43.64
31595;BME280;18200;48.726;8.892;2022-07-22T03:54:14;97128.75;;;26.41;44.46
31595;BME280;18200;48.726;8.892;2022-07-22T03:58:17;97124.19;;;26.99;44.31
31595;BME280;18200;48.726;8.892;2022-07-22T04:02:18;97123.84;;;27.37;42.95
31595;BME280;18200;48.726;8.892;2022-07-22T04:06:20;97127.72;;;27.48;42.10
31595;BME280;18200;48.726;8.892;2022-07-22T04:10:25;97131.56;;;27.60;41.96
31595;BME280;18200;48.726;8.892;2022-07-22T04:14:27;97136.03;;;27.76;41.51
31595;BME280;18200;48.726;8.892;2022-07-22T04:18:31;97124.97;;;27.57;42.27
31595;BME280;18200;48.726;8.892;2022-07-22T04:22:31;97120.53;;;27.69;41.94
31595;BME280;18200;48.726;8.892;2022-07-22T04:26:32;97123.41;;;27.38;42.51
31595;BME280;18200;48.726;8.892;2022-07-22T04:30:33;97113.94;;;27.57;42.84
31595;BME280;18200;48.726;8.892;2022-07-22T04:34:34;97109.78;;;27.53;41.83
31595;BME280;18200;48.726;8.892;2022-07-22T04:38:35;97104.75;;;27.79;42.67
31595;BME280;18200;48.726;8.892;2022-07-22T04:42:38;97105.38;;;27.92;41.82
31595;BME280;18200;48.726;8.892;2022-07-22T04:46:38;97110.59;;;27.99;41.49
31595;BME280;18200;48.726;8.892;2022-07-22T04:50:39;97107.19;;;28.22;40.31
31595;BME280;18200;48.726;8.892;2022-07-22T04:54:40;97107.53;;;28.06;40.45
31595;BME280;18200;48.726;8.892;2022-07-22T04:58:41;97109.63;;;27.93;41.60
31595;BME280;18200;48.726;8.892;2022-07-22T05:02:41;97099.19;;;28.24;41.17
31595;BME280;18200;48.726;8.892;2022-07-22T05:06:42;97105.81;;;28.17;41.11
31595;BME280;18200;48.726;8.892;2022-07-22T05:10:42;97101.66;;;28.22;41.26
31595;BME280;18200;48.726;8.892;2022-07-22T05:14:42;97101.09;;;28.09;41.37
31595;BME280;18200;48.726;8.892;2022-07-22T05:18:43;97099.19;;;27.88;41.84
31595;BME280;18200;48.726;8.892;2022-07-22T05:22:47;97109.31;;;28.36;41.26
31595;BME280;18200;48.726;8.892;2022-07-22T05:26:53;97100.78;;;28.76;40.80
31595;BME280;18200;48.726;8.892;2022-07-22T05:30:54;97099.44;;;28.53;41.40
31595;BME280;18200;48.726;8.892;2022-07-22T05:34:58;97095.53;;;28.78;40.80
31595;BME280;18200;48.726;8.892;2022-07-22T05:38:59;97100.53;;;28.97;40.19
31595;BME280;18200;48.726;8.892;2022-07-22T05:43:00;97105.97;;;29.15;41.21
31595;BME280;18200;48.726;8.892;2022-07-22T05:47:00;97104.59;;;29.44;41.03
31595;BME280;18200;48.726;8.892;2022-07-22T05:51:01;97102.06;;;29.78;40.82
31595;BME280;18200;48.726;8.892;2022-07-22T05:55:02;97097.63;;;29.72;40.74
31595;BME280;18200;48.726;8.892;2022-07-22T05:59:03;97095.50;;;29.67;40.58
31595;BME280;18200;48.726;8.892;2022-07-22T06:03:04;97096.81;;;29.57;41.61
31595;BME280;18200;48.726;8.892;2022-07-22T06:07:04;97099.19;;;29.26;42.67
31595;BME280;18200;48.726;8.892;2022-07-22T06:11:06;97098.50;;;30.16;40.38
31595;BME280;18200;48.726;8.892;2022-07-22T06:15:08;97097.31;;;29.79;40.82
31595;BME280;18200;48.726;8.892;2022-07-22T06:19:09;97096.81;;;29.57;41.68
31595;BME280;18200;48.726;8.892;2022-07-22T06:23:10;97091.66;;;30.41;40.51
31595;BME280;18200;48.726;8.892;2022-07-22T06:27:10;97095.66;;;30.40;40.59
31595;BME280;18200;48.726;8.892;2022-07-22T06:31:11;97107.13;;;30.77;40.20
31595;BME280;18200;48.726;8.892;2022-07-22T06:35:11;97111.66;;;30.30;41.45
31595;BME280;18200;48.726;8.892;2022-07-22T06:39:12;97094.88;;;30.98;39.38
31595;BME280;18200;48.726;8.892;2022-07-22T06:43:33;97101.19;;;30.25;41.30
31595;BME280;18200;48.726;8.892;2022-07-22T06:47:55;97091.03;;;30.81;40.01
31595;BME280;18200;48.726;8.892;2022-07-22T06:51:57;97094.28;;;31.43;39.01
31595;BME280;18200;48.726;8.892;2022-07-22T06:55:57;97093.00;;;31.44;39.02
31595;BME280;18200;48.726;8.892;2022-07-22T06:59:58;97090.06;;;31.73;38.36
31595;BME280;18200;48.726;8.892;2022-07-22T07:04:00;97086.44;;;30.78;39.97
31595;BME280;18200;48.726;8.892;2022-07-22T07:08:00;97077.94;;;31.71;38.29
31595;BME280;18200;48.726;8.892;2022-07-22T07:12:01;97083.84;;;32.81;36.63
31595;BME280;18200;48.726;8.892;2022-07-22T07:16:20;97078.63;;;32.94;36.10
31595;BME280;18200;48.726;8.892;2022-07-22T07:20:21;97060.34;;;33.24;35.90
31595;BME280;18200;48.726;8.892;2022-07-22T07:24:21;97061.31;;;33.63;34.74
31595;BME280;18200;48.726;8.892;2022-07-22T07:28:23;97060.88;;;33.93;34.06
31595;BME280;18200;48.726;8.892;2022-07-22T07:32:27;97054.44;;;33.53;34.68
31595;BME280;18200;48.726;8.892;2022-07-22T07:36:28;97054.63;;;33.44;34.91
31595;BME280;18200;48.726;8.892;2022-07-22T07:40:29;97052.13;;;34.55;33.11
31595;BME280;18200;48.726;8.892;2022-07-22T07:44:29;97064.84;;;34.56;33.22
31595;BME280;18200;48.726;8.892;2022-07-22T07:48:30;97059.72;;;34.49;33.51
31595;BME280;18200;48.726;8.892;2022-07-22T07:52:30;97058.69;;;34.19;33.55
31595;BME280;18200;48.726;8.892;2022-07-22T07:56:31;97051.56;;;34.07;33.78
31595;BME280;18200;48.726;8.892;2022-07-22T08:00:32;97053.03;;;33.86;34.39
31595;BME280;18200;48.726;8.892;2022-07-22T08:04:36;97056.84;;;33.94;34.83
31595;BME280;18200;48.726;8.892;2022-07-22T08:08:39;97043.75;;;34.38;33.77
31595;BME280;18200;48.726;8.892;2022-07-22T08:12:54;97044.00;;;34.35;33.65
31595;BME280;18200;48.726;8.892;2022-07-22T08:17:21;97047.28;;;35.11;33.09
31595;BME280;18200;48.726;8.892;2022-07-22T08:21:21;97045.53;;;34.69;33.48
31595;BME280;18200;48.726;8.892;2022-07-22T08:25:27;97037.38;;;34.38;33.94
31595;BME280;18200;48.726;8.892;2022-07-22T08:29:28;97038.66;;;34.48;33.76
31595;BME280;18200;48.726;8.892;2022-07-22T08:33:28;97030.66;;;35.52;32.11
31595;BME280;18200;48.726;8.892;2022-07-22T08:37:29;97023.78;;;35.42;32.12
31595;BME280;18200;48.726;8.892;2022-07-22T08:41:35;97026.97;;;34.94;32.49
31595;BME280;18200;48.726;8.892;2022-07-22T08:45:36;97029.16;;;36.32;29.66
31595;BME280;18200;48.726;8.892;2022-07-22T08:49:38;97009.78;;;36.34;30.24
31595;BME280;18200;48.726;8.892;2022-07-22T08:53:55;97009.06;;;36.88;29.68
31595;BME280;18200;48.726;8.892;2022-07-22T08:57:55;97004.88;;;37.24;29.41
31595;BME280;18200;48.726;8.892;2022-07-22T09:02:07;97014.47;;;37.34;27.77
31595;BME280;18200;48.726;8.892;2022-07-22T09:06:13;97015.28;;;37.29;27.62
31595;BME280;18200;48.726;8.892;2022-07-22T09:10:17;97006.50;;;38.13;27.20
31595;BME280;18200;48.726;8.892;2022-07-22T09:14:46;97013.31;;;37.85;27.13
31595;BME280;18200;48.726;8.892;2022-07-22T09:19:08;97013.88;;;38.16;26.13
31595;BME280;18200;48.726;8.892;2022-07-22T09:23:23;97008.13;;;38.27;26.09
31595;BME280;18200;48.726;8.892;2022-07-22T09:27:26;96996.03;;;37.81;27.77
31595;BME280;18200;48.726;8.892;2022-07-22T09:31:50;97003.53;;;38.24;26.73
31595;BME280;18200;48.726;8.892;2022-07-22T09:36:07;96999.97;;;38.55;25.40
31595;BME280;18200;48.726;8.892;2022-07-22T09:40:15;96996.88;;;38.27;25.52
31595;BME280;18200;48.726;8.892;2022-07-22T09:44:23;96998.22;;;38.39;25.86
31595;BME280;18200;48.726;8.892;2022-07-22T09:48:26;96988.28;;;38.51;25.33
31595;BME280;18200;48.726;8.892;2022-07-22T09:52:45;96975.19;;;38.08;25.93
31595;BME280;18200;48.726;8.892;2022-07-22T09:56:54;96974.84;;;39.02;24.68
31595;BME280;18200;48.726;8.892;2022-07-22T10:00:59;96980.56;;;38.70;23.94
31595;BME280;18200;48.726;8.892;2022-07-22T10:05:02;96972.38;;;39.50;23.47
31595;BME280;18200;48.726;8.892;2022-07-22T10:09:04;96961.88;;;39.38;23.55
31595;BME280;18200;48.726;8.892;2022-07-22T10:13:07;96963.59;;;39.88;23.93
31595;BME280;18200;48.726;8.892;2022-07-22T10:17:08;96954.91;;;39.78;25.05
31595;BME280;18200;48.726;8.892;2022-07-22T10:21:09;96955.91;;;39.68;23.67
31595;BME280;18200;48.726;8.892;2022-07-22T10:25:12;96945.81;;;40.06;23.15
31595;BME280;18200;48.726;8.892;2022-07-22T10:29:24;96945.28;;;39.94;24.14
31595;BME280;18200;48.726;8.892;2022-07-22T10:33:29;96938.34;;;39.15;24.70
31595;BME280;18200;48.726;8.892;2022-07-22T10:41:38;96926.50;;;41.08;22.20
31595;BME280;18200;48.726;8.892;2022-07-22T10:49:46;96934.47;;;40.40;23.46
31595;BME280;18200;48.726;8.892;2022-07-22T10:53:58;96932.56;;;40.83;22.41
31595;BME280;18200;48.726;8.892;2022-07-22T10:58:00;96927.09;;;41.14;22.78
31595;BME280;18200;48.726;8.892;2022-07-22T11:02:00;96919.09;;;38.22;25.46
31595;BME280;18200;48.726;8.892;2022-07-22T11:06:25;96916.69;;;40.73;23.43
31595;BME280;18200;48.726;8.892;2022-07-22T11:10:25;96916.25;;;41.76;22.87
31595;BME280;18200;48.726;8.892;2022-07-22T11:14:28;96920.09;;;41.43;22.68
31595;BME280;18200;48.726;8.892;2022-07-22T11:18:53;96917.56;;;40.88;22.11
31595;BME280;18200;48.726;8.892;2022-07-22T11:22:53;96902.97;;;42.29;21.05
31595;BME280;18200;48.726;8.892;2022-07-22T11:26:55;96906.38;;;41.04;21.52
31595;BME280;18200;48.726;8.892;2022-07-22T11:31:06;96897.94;;;41.62;21.04
31595;BME280;18200;48.726;8.892;2022-07-22T11:35:11;96890.16;;;42.28;21.73
31595;BME280;18200;48.726;8.892;2022-07-22T11:39:14;96888.47;;;42.25;19.94
31595;BME280;18200;48.726;8.892;2022-07-22T11:43:14;96870.19;;;42.04;20.56
31595;BME280;18200;48.726;8.892;2022-07-22T11:47:15;96870.53;;;42.00;20.29
31595;BME280;18200;48.726;8.892;2022-07-22T11:51:15;96861.09;;;41.75;20.81
31595;BME280;18200;48.726;8.892;2022-07-22T11:55:15;96850.22;;;42.24;20.82
31595;BME280;18200;48.726;8.892;2022-07-22T11:59:17;96847.41;;;42.24;20.31
31595;BME280;18200;48.726;8.892;2022-07-22T12:03:17;96841.91;;;41.81;21.20
31595;BME280;18200;48.726;8.892;2022-07-22T12:07:18;96836.81;;;43.17;19.79
31595;BME280;18200;48.726;8.892;2022-07-22T12:11:21;96842.91;;;43.78;19.16
31595;BME280;18200;48.726;8.892;2022-07-22T12:15:22;96830.44;;;42.32;19.90
31595;BME280;18200;48.726;8.892;2022-07-22T12:19:23;96825.19;;;42.98;19.32
31595;BME280;18200;48.726;8.892;2022-07-22T12:23:25;96838.63;;;43.38;19.84
31595;BME280;18200;48.726;8.892;2022-07-22T12:27:26;96824.50;;;42.90;20.82
31595;BME280;18200;48.726;8.892;2022-07-22T12:31:26;96827.50;;;43.64;19.61
31595;BME280;18200;48.726;8.892;2022-07-22T12:35:27;96822.19;;;43.68;19.50
31595;BME280;18200;48.726;8.892;2022-07-22T12:39:27;96828.91;;;42.54;20.85
31595;BME280;18200;48.726;8.892;2022-07-22T12:43:28;96820.75;;;44.09;18.11
31595;BME280;18200;48.726;8.892;2022-07-22T12:52:06;96809.81;;;45.43;17.68
31595;BME280;18200;48.726;8.892;2022-07-22T12:56:07;96802.81;;;45.80;17.34
31595;BME280;18200;48.726;8.892;2022-07-22T13:00:10;96802.75;;;45.61;17.01
31595;BME280;18200;48.726;8.892;2022-07-22T13:04:15;96794.91;;;45.88;17.43
31595;BME280;18200;48.726;8.892;2022-07-22T13:08:16;96800.41;;;44.79;18.61
31595;BME280;18200;48.726;8.892;2022-07-22T13:12:16;96801.22;;;43.96;18.67
31595;BME280;18200;48.726;8.892;2022-07-22T13:16:17;96800.00;;;43.82;18.60
31595;BME280;18200;48.726;8.892;2022-07-22T13:20:18;96792.53;;;44.19;18.59
31595;BME280;18200;48.726;8.892;2022-07-22T13:24:18;96784.19;;;45.06;18.34
31595;BME280;18200;48.726;8.892;2022-07-22T13:28:19;96783.78;;;45.99;17.08
31595;BME280;18200;48.726;8.892;2022-07-22T13:32:19;96786.50;;;46.26;16.03
31595;BME280;18200;48.726;8.892;2022-07-22T13:36:20;96778.91;;;44.42;17.83
31595;BME280;18200;48.726;8.892;2022-07-22T13:40:20;96777.81;;;43.96;17.90
31595;BME280;18200;48.726;8.892;2022-07-22T13:44:21;96777.78;;;44.37;17.22
31595;BME280;18200;48.726;8.892;2022-07-22T13:48:21;96767.44;;;43.73;18.54
31595;BME280;18200;48.726;8.892;2022-07-22T13:52:22;96765.84;;;42.91;19.26
31595;BME280;18200;48.726;8.892;2022-07-22T13:56:23;96758.50;;;45.58;17.54
31595;BME280;18200;48.726;8.892;2022-07-22T14:00:24;96755.00;;;45.86;17.40
31595;BME280;18200;48.726;8.892;2022-07-22T14:04:25;96744.88;;;45.03;17.50
31595;BME280;18200;48.726;8.892;2022-07-22T14:08:26;96747.31;;;47.11;15.40
31595;BME280;18200;48.726;8.892;2022-07-22T14:12:26;96745.09;;;45.68;16.83
31595;BME280;18200;48.726;8.892;2022-07-22T14:16:27;96741.38;;;46.30;16.48
31595;BME280;18200;48.726;8.892;2022-07-22T14:20:36;96746.25;;;46.10;16.83
31595;BME280;18200;48.726;8.892;2022-07-22T14:24:36;96742.56;;;45.81;16.52
31595;BME280;18200;48.726;8.892;2022-07-22T14:28:37;96743.00;;;46.71;16.69
31595;BME280;18200;48.726;8.892;2022-07-22T14:32:37;96747.06;;;45.48;17.88
31595;BME280;18200;48.726;8.892;2022-07-22T14:36:38;96743.09;;;46.16;16.93
31595;BME280;18200;48.726;8.892;2022-07-22T14:40:38;96732.25;;;45.86;16.99
31595;BME280;18200;48.726;8.892;2022-07-22T14:44:38;96718.88;;;46.15;16.48
31595;BME280;18200;48.726;8.892;2022-07-22T14:48:39;96712.22;;;45.38;17.15
31595;BME280;18200;48.726;8.892;2022-07-22T14:52:41;96706.91;;;44.98;17.33
31595;BME280;18200;48.726;8.892;2022-07-22T14:56:41;96703.94;;;45.59;17.86
31595;BME280;18200;48.726;8.892;2022-07-22T15:00:42;96701.50;;;44.83;17.59
31595;BME280;18200;48.726;8.892;2022-07-22T15:04:42;96710.38;;;46.72;16.40
31595;BME280;18200;48.726;8.892;2022-07-22T15:08:44;96706.19;;;44.20;18.29
31595;BME280;18200;48.726;8.892;2022-07-22T15:12:44;96703.84;;;44.26;17.77
31595;BME280;18200;48.726;8.892;2022-07-22T15:16:44;96702.84;;;44.14;18.99
31595;BME280;18200;48.726;8.892;2022-07-22T15:20:45;96702.06;;;45.81;16.72
31595;BME280;18200;48.726;8.892;2022-07-22T15:24:45;96707.81;;;46.76;16.72
31595;BME280;18200;48.726;8.892;2022-07-22T15:28:45;96708.59;;;47.88;14.53
31595;BME280;18200;48.726;8.892;2022-07-22T15:32:47;96701.66;;;44.85;17.14
31595;BME280;18200;48.726;8.892;2022-07-22T15:36:47;96700.47;;;44.88;17.31
31595;BME280;18200;48.726;8.892;2022-07-22T15:40:48;96692.41;;;43.99;18.21
31595;BME280;18200;48.726;8.892;2022-07-22T15:44:48;96686.22;;;45.05;17.33
31595;BME280;18200;48.726;8.892;2022-07-22T15:48:49;96690.00;;;45.17;17.07
31595;BME280;18200;48.726;8.892;2022-07-22T15:52:49;96681.78;;;46.51;16.42
31595;BME280;18200;48.726;8.892;2022-07-22T15:56:50;96690.41;;;46.92;15.98
31595;BME280;18200;48.726;8.892;2022-07-22T16:00:50;96685.28;;;45.75;16.47
31595;BME280;18200;48.726;8.892;2022-07-22T16:04:51;96674.41;;;45.35;17.30
31595;BME280;18200;48.726;8.892;2022-07-22T16:08:51;96677.97;;;45.26;16.80
31595;BME280;18200;48.726;8.892;2022-07-22T16:12:51;96673.91;;;44.93;17.64
31595;BME280;18200;48.726;8.892;2022-07-22T16:16:53;96671.41;;;45.33;17.24
31595;BME280;18200;48.726;8.892;2022-07-22T16:20:53;96672.34;;;45.46;17.57
31595;BME280;18200;48.726;8.892;2022-07-22T16:24:55;96662.75;;;45.31;17.61
31595;BME280;18200;48.726;8.892;2022-07-22T16:28:55;96671.84;;;45.76;17.34
31595;BME280;18200;48.726;8.892;2022-07-22T16:32:55;96675.47;;;46.24;15.84
31595;BME280;18200;48.726;8.892;2022-07-22T16:36:56;96676.25;;;45.96;16.49
31595;BME280;18200;48.726;8.892;2022-07-22T16:40:56;96679.63;;;45.29;17.54
31595;BME280;18200;48.726;8.892;2022-07-22T16:44:57;96678.00;;;41.26;22.02
31595;BME280;18200;48.726;8.892;2022-07-22T16:48:57;96667.72;;;40.70;23.10
31595;BME280;18200;48.726;8.892;2022-07-22T16:52:58;96666.84;;;40.40;23.26
31595;BME280;18200;48.726;8.892;2022-07-22T16:56:58;96668.78;;;41.56;22.42
31595;BME280;18200;48.726;8.892;2022-07-22T17:00:59;96669.50;;;41.11;22.45
31595;BME280;18200;48.726;8.892;2022-07-22T17:04:59;96671.16;;;40.84;22.78
31595;BME280;18200;48.726;8.892;2022-07-22T17:08:59;96674.25;;;39.86;23.92
31595;BME280;18200;48.726;8.892;2022-07-22T17:13:00;96680.88;;;40.32;23.30
31595;BME280;18200;48.726;8.892;2022-07-22T17:17:00;96679.72;;;40.20;23.08
31595;BME280;18200;48.726;8.892;2022-07-22T17:21:02;96691.31;;;38.98;25.04
31595;BME280;18200;48.726;8.892;2022-07-22T17:25:04;96686.59;;;39.55;23.57
31595;BME280;18200;48.726;8.892;2022-07-22T17:29:04;96686.06;;;39.85;23.61
31595;BME280;18200;48.726;8.892;2022-07-22T17:33:05;96702.50;;;38.44;25.34
31595;BME280;18200;48.726;8.892;2022-07-22T17:37:05;96712.38;;;39.25;24.43
31595;BME280;18200;48.726;8.892;2022-07-22T17:41:06;96719.19;;;39.30;24.59
31595;BME280;18200;48.726;8.892;2022-07-22T17:45:07;96709.91;;;39.42;24.53
31595;BME280;18200;48.726;8.892;2022-07-22T17:49:07;96713.22;;;39.33;24.03
31595;BME280;18200;48.726;8.892;2022-07-22T17:53:08;96719.09;;;38.55;25.18
31595;BME280;18200;48.726;8.892;2022-07-22T17:57:09;96717.56;;;38.67;25.08
31595;BME280;18200;48.726;8.892;2022-07-22T18:01:09;96736.59;;;38.22;25.55
31595;BME280;18200;48.726;8.892;2022-07-22T18:05:10;96715.22;;;38.45;25.31
31595;BME280;18200;48.726;8.892;2022-07-22T18:09:11;96735.31;;;38.36;25.99
31595;BME280;18200;48.726;8.892;2022-07-22T18:13:12;96743.38;;;38.78;24.83
31595;BME280;18200;48.726;8.892;2022-07-22T18:17:15;96738.09;;;38.75;25.01
31595;BME280;18200;48.726;8.892;2022-07-22T18:21:15;96747.59;;;38.72;25.27
31595;BME280;18200;48.726;8.892;2022-07-22T18:25:16;96748.50;;;38.01;26.00
31595;BME280;18200;48.726;8.892;2022-07-22T18:29:16;96741.78;;;37.91;26.13
31595;BME280;18200;48.726;8.892;2022-07-22T18:33:17;96746.88;;;37.48;26.89
31595;BME280;18200;48.726;8.892;2022-07-22T18:37:18;96752.31;;;37.09;27.81
31595;BME280;18200;48.726;8.892;2022-07-22T18:41:18;96757.25;;;36.84;27.84
31595;BME280;18200;48.726;8.892;2022-07-22T18:45:18;96761.13;;;37.63;26.95
31595;BME280;18200;48.726;8.892;2022-07-22T18:49:20;96768.16;;;37.57;26.87
31595;BME280;18200;48.726;8.892;2022-07-22T18:53:20;96773.28;;;37.21;27.61
31595;BME280;18200;48.726;8.892;2022-07-22T18:57:21;96776.56;;;38.67;26.06
31595;BME280;18200;48.726;8.892;2022-07-22T19:01:21;96793.28;;;38.59;25.98
31595;BME280;18200;48.726;8.892;2022-07-22T19:05:21;96783.25;;;38.64;25.95
31595;BME280;18200;48.726;8.892;2022-07-22T19:09:22;96790.13;;;38.89;25.17
31595;BME280;18200;48.726;8.892;2022-07-22T19:13:22;96788.09;;;39.23;25.58
31595;BME280;18200;48.726;8.892;2022-07-22T19:17:23;96780.81;;;39.62;25.12
31595;BME280;18200;48.726;8.892;2022-07-22T19:21:23;96773.09;;;39.21;25.08
31595;BME280;18200;48.726;8.892;2022-07-22T19:25:25;96794.22;;;39.01;26.76
31595;BME280;18200;48.726;8.892;2022-07-22T19:29:25;96799.75;;;38.94;26.17
31595;BME280;18200;48.726;8.892;2022-07-22T19:33:26;96809.16;;;38.96;25.79
31595;BME280;18200;48.726;8.892;2022-07-22T19:37:26;96808.78;;;38.40;27.13
31595;BME280;18200;48.726;8.892;2022-07-22T19:41:26;96829.94;;;38.54;26.64
31595;BME280;18200;48.726;8.892;2022-07-22T19:45:27;96832.72;;;38.28;27.39
31595;BME280;18200;48.726;8.892;2022-07-22T19:49:27;96849.59;;;38.67;27.28
31595;BME280;18200;48.726;8.892;2022-07-22T19:53:29;96859.25;;;38.71;27.33
31595;BME280;18200;48.726;8.892;2022-07-22T19:57:30;96855.22;;;38.54;27.23
31595;BME280;18200;48.726;8.892;2022-07-22T20:01:31;96870.66;;;37.39;28.92
31595;BME280;18200;48.726;8.892;2022-07-22T20:05:31;96874.63;;;37.62;28.20
31595;BME280;18200;48.726;8.892;2022-07-22T20:09:32;96863.22;;;37.42;28.56
31595;BME280;18200;48.726;8.892;2022-07-22T20:13:32;96861.38;;;37.63;29.07
31595;BME280;18200;48.726;8.892;2022-07-22T20:17:33;96866.22;;;37.62;29.50
31595;BME280;18200;48.726;8.892;2022-07-22T20:21:33;96867.91;;;37.52;28.83
31595;BME280;18200;48.726;8.892;2022-07-22T20:25:33;96878.19;;;37.07;29.54
31595;BME280;18200;48.726;8.892;2022-07-22T20:29:34;96873.28;;;36.94;29.51
31595;BME280;18200;48.726;8.892;2022-07-22T20:33:34;96879.34;;;36.74;31.05
31595;BME280;18200;48.726;8.892;2022-07-22T20:37:34;96888.91;;;36.84;31.24
31595;BME280;18200;48.726;8.892;2022-07-22T20:41:35;96863.78;;;36.97;30.93
31595;BME280;18200;48.726;8.892;2022-07-22T20:45:35;96844.44;;;37.18;29.98
31595;BME280;18200;48.726;8.892;2022-07-22T20:49:36;96826.41;;;36.95;30.82
31595;BME280;18200;48.726;8.892;2022-07-22T20:53:36;96869.38;;;35.71;32.71
31595;BME280;18200;48.726;8.892;2022-07-22T20:57:37;96870.88;;;36.31;31.29
31595;BME280;18200;48.726;8.892;2022-07-22T21:01:37;96882.75;;;35.43;33.65
31595;BME280;18200;48.726;8.892;2022-07-22T21:05:38;96875.13;;;35.49;32.78
31595;BME280;18200;48.726;8.892;2022-07-22T21:09:38;96865.75;;;35.76;31.88
31595;BME280;18200;48.726;8.892;2022-07-22T21:13:38;96879.88;;;36.24;31.61
31595;BME280;18200;48.726;8.892;2022-07-22T21:17:39;96909.84;;;35.13;34.12
31595;BME280;18200;48.726;8.892;2022-07-22T21:21:39;96914.34;;;36.08;32.30
31595;BME280;18200;48.726;8.892;2022-07-22T21:25:39;96915.06;;;36.14;32.33
31595;BME280;18200;48.726;8.892;2022-07-22T21:29:40;96899.22;;;36.52;31.17
31595;BME280;18200;48.726;8.892;2022-07-22T21:33:40;96807.34;;;36.26;32.73